sensor_id;sensor_type;location;lat;lon;timestamp;temperature;humidity
8707;DHT22;4390;49.302;9.306;2023-02-27T00:00:14;0.00;84.10
8707;DHT22;4390;49.302;9.306;2023-02-27T00:06:55;0.00;84.00
8707;DHT22;4390;49.302;9.306;2023-02-27T00:09:22;0.00;84.10
8707;DHT22;4390;49.302;9.306;2023-02-27T00:11:49;0.10;84.00
8707;DHT22;4390;49.302;9.306;2023-02-27T00:14:16;0.20;84.00
8707;DHT22;4390;49.302;9.306;2023-02-27T00:16:43;0.10;84.00
8707;DHT22;4390;49.302;9.306;2023-02-27T00:19:10;0.10;84.20
8707;DHT22;4390;49.302;9.306;2023-02-27T00:21:38;0.20;83.90
8707;DHT22;4390;49.302;9.306;2023-02-27T00:24:05;0.20;83.90
8707;DHT22;4390;49.302;9.306;2023-02-27T00:26:31;0.10;83.80
8707;DHT22;4390;49.302;9.306;2023-02-27T00:28:58;0.20;83.90
8707;DHT22;4390;49.302;9.306;2023-02-27T00:31:25;0.20;83.90
8707;DHT22;4390;49.302;9.306;2023-02-27T00:33:52;0.10;84.20
8707;DHT22;4390;49.302;9.306;2023-02-27T00:36:19;0.10;84.10
8707;DHT22;4390;49.302;9.306;2023-02-27T00:38:45;0.20;84.00
8707;DHT22;4390;49.302;9.306;2023-02-27T00:41:12;0.20;84.00
8707;DHT22;4390;49.302;9.306;2023-02-27T00:43:39;0.20;83.80
8707;DHT22;4390;49.302;9.306;2023-02-27T00:46:05;0.10;83.70
8707;DHT22;4390;49.302;9.306;2023-02-27T00:48:32;0.00;84.20
8707;DHT22;4390;49.302;9.306;2023-02-27T00:51:00;0.20;84.00
8707;DHT22;4390;49.302;9.306;2023-02-27T00:53:27;0.00;84.00
8707;DHT22;4390;49.302;9.306;2023-02-27T00:55:53;-0.10;84.40
8707;DHT22;4390;49.302;9.306;2023-02-27T00:58:20;-0.30;84.50
8707;DHT22;4390;49.302;9.306;2023-02-27T01:00:47;-0.20;84.80
8707;DHT22;4390;49.302;9.306;2023-02-27T01:03:13;-0.10;84.60
8707;DHT22;4390;49.302;9.306;2023-02-27T01:05:40;-0.10;84.40
8707;DHT22;4390;49.302;9.306;2023-02-27T01:08:07;-0.10;84.40
8707;DHT22;4390;49.302;9.306;2023-02-27T01:10:34;0.00;84.50
8707;DHT22;4390;49.302;9.306;2023-02-27T01:13:01;0.10;84.10
8707;DHT22;4390;49.302;9.306;2023-02-27T01:15:28;0.00;84.20
8707;DHT22;4390;49.302;9.306;2023-02-27T01:17:54;0.00;84.30
8707;DHT22;4390;49.302;9.306;2023-02-27T01:20:21;0.00;84.20
8707;DHT22;4390;49.302;9.306;2023-02-27T01:22:48;0.00;84.30
8707;DHT22;4390;49.302;9.306;2023-02-27T01:25:15;-0.10;84.50
8707;DHT22;4390;49.302;9.306;2023-02-27T01:27:41;-0.10;84.40
8707;DHT22;4390;49.302;9.306;2023-02-27T01:30:09;-0.20;84.40
8707;DHT22;4390;49.302;9.306;2023-02-27T01:32:37;-0.30;84.50
8707;DHT22;4390;49.302;9.306;2023-02-27T01:35:04;-0.30;84.60
8707;DHT22;4390;49.302;9.306;2023-02-27T01:37:31;-0.40;84.50
8707;DHT22;4390;49.302;9.306;2023-02-27T01:39:57;-0.40;85.00
8707;DHT22;4390;49.302;9.306;2023-02-27T01:42:26;-0.40;85.00
8707;DHT22;4390;49.302;9.306;2023-02-27T01:47:41;-0.50;85.00
8707;DHT22;4390;49.302;9.306;2023-02-27T01:50:09;-0.60;85.20
8707;DHT22;4390;49.302;9.306;2023-02-27T01:52:37;-0.70;85.20
8707;DHT22;4390;49.302;9.306;2023-02-27T01:55:06;-0.40;85.20
8707;DHT22;4390;49.302;9.306;2023-02-27T01:57:35;-0.30;84.70
8707;DHT22;4390;49.302;9.306;2023-02-27T02:00:03;-0.40;84.60
8707;DHT22;4390;49.302;9.306;2023-02-27T02:02:40;-0.40;84.80
8707;DHT22;4390;49.302;9.306;2023-02-27T02:05:10;-0.40;84.70
8707;DHT22;4390;49.302;9.306;2023-02-27T02:07:38;-0.40;84.80
8707;DHT22;4390;49.302;9.306;2023-02-27T02:10:06;-0.30;84.50
8707;DHT22;4390;49.302;9.306;2023-02-27T02:12:36;-0.30;84.40
8707;DHT22;4390;49.302;9.306;2023-02-27T02:15:04;-0.30;84.40
8707;DHT22;4390;49.302;9.306;2023-02-27T02:18:12;-0.10;84.30
8707;DHT22;4390;49.302;9.306;2023-02-27T02:23:21;-0.40;84.30
8707;DHT22;4390;49.302;9.306;2023-02-27T02:28:53;-0.50;85.00
8707;DHT22;4390;49.302;9.306;2023-02-27T02:45:34;-0.40;84.50
8707;DHT22;4390;49.302;9.306;2023-02-27T02:49:25;-0.40;84.60
8707;DHT22;4390;49.302;9.306;2023-02-27T02:51:43;-0.50;84.60
8707;DHT22;4390;49.302;9.306;2023-02-27T02:54:19;-0.60;84.80
8707;DHT22;4390;49.302;9.306;2023-02-27T02:56:58;-0.60;84.90
8707;DHT22;4390;49.302;9.306;2023-02-27T02:59:29;-0.50;84.50
8707;DHT22;4390;49.302;9.306;2023-02-27T03:02:02;-0.80;84.70
8707;DHT22;4390;49.302;9.306;2023-02-27T03:04:31;-0.70;84.90
8707;DHT22;4390;49.302;9.306;2023-02-27T03:09:49;-1.00;85.20
8707;DHT22;4390;49.302;9.306;2023-02-27T03:12:22;-1.20;85.40
8707;DHT22;4390;49.302;9.306;2023-02-27T03:15:16;-1.10;85.60
8707;DHT22;4390;49.302;9.306;2023-02-27T03:18:09;-1.00;85.40
8707;DHT22;4390;49.302;9.306;2023-02-27T03:20:48;-1.00;85.20
8707;DHT22;4390;49.302;9.306;2023-02-27T03:23:20;-1.00;85.50
8707;DHT22;4390;49.302;9.306;2023-02-27T03:25:50;-0.90;85.50
8707;DHT22;4390;49.302;9.306;2023-02-27T03:28:23;-0.80;85.50
8707;DHT22;4390;49.302;9.306;2023-02-27T03:30:59;-0.70;85.30
8707;DHT22;4390;49.302;9.306;2023-02-27T03:33:31;-0.70;85.20
8707;DHT22;4390;49.302;9.306;2023-02-27T03:36:22;-0.60;85.10
8707;DHT22;4390;49.302;9.306;2023-02-27T03:39:22;-0.60;84.80
8707;DHT22;4390;49.302;9.306;2023-02-27T03:41:56;-0.60;84.60
8707;DHT22;4390;49.302;9.306;2023-02-27T03:45:02;-0.70;84.70
8707;DHT22;4390;49.302;9.306;2023-02-27T03:47:32;-0.70;84.60
8707;DHT22;4390;49.302;9.306;2023-02-27T03:50:00;-0.70;84.70
8707;DHT22;4390;49.302;9.306;2023-02-27T03:52:28;-0.70;84.70
8707;DHT22;4390;49.302;9.306;2023-02-27T03:55:02;-0.60;84.60
8707;DHT22;4390;49.302;9.306;2023-02-27T03:57:34;-0.70;84.20
8707;DHT22;4390;49.302;9.306;2023-02-27T04:00:02;-0.80;84.40
8707;DHT22;4390;49.302;9.306;2023-02-27T04:02:40;-1.00;84.60
8707;DHT22;4390;49.302;9.306;2023-02-27T04:05:07;-1.00;84.80
8707;DHT22;4390;49.302;9.306;2023-02-27T04:07:50;-1.10;84.80
8707;DHT22;4390;49.302;9.306;2023-02-27T04:10:21;-1.10;85.10
8707;DHT22;4390;49.302;9.306;2023-02-27T04:13:11;-1.20;85.10
8707;DHT22;4390;49.302;9.306;2023-02-27T04:16:08;-1.30;85.30
8707;DHT22;4390;49.302;9.306;2023-02-27T04:18:45;-1.20;85.40
8707;DHT22;4390;49.302;9.306;2023-02-27T04:21:20;-1.30;85.50
8707;DHT22;4390;49.302;9.306;2023-02-27T04:27:10;-1.30;85.60
8707;DHT22;4390;49.302;9.306;2023-02-27T04:30:45;-1.20;85.30
8707;DHT22;4390;49.302;9.306;2023-02-27T04:33:01;-1.20;85.20
8707;DHT22;4390;49.302;9.306;2023-02-27T04:35:39;-1.10;85.50
8707;DHT22;4390;49.302;9.306;2023-02-27T04:38:27;-1.00;84.90
8707;DHT22;4390;49.302;9.306;2023-02-27T04:41:05;-0.90;84.90
8707;DHT22;4390;49.302;9.306;2023-02-27T04:43:33;-0.90;84.60
8707;DHT22;4390;49.302;9.306;2023-02-27T04:46:04;-1.00;84.60
8707;DHT22;4390;49.302;9.306;2023-02-27T04:48:36;-1.00;84.70
8707;DHT22;4390;49.302;9.306;2023-02-27T04:51:16;-1.30;84.90
8707;DHT22;4390;49.302;9.306;2023-02-27T04:53:50;-1.40;85.60
8707;DHT22;4390;49.302;9.306;2023-02-27T04:56:24;-1.40;85.50
8707;DHT22;4390;49.302;9.306;2023-02-27T04:59:00;-1.50;85.50
8707;DHT22;4390;49.302;9.306;2023-02-27T05:01:38;-1.50;85.70
8707;DHT22;4390;49.302;9.306;2023-02-27T05:04:09;-1.50;85.80
8707;DHT22;4390;49.302;9.306;2023-02-27T05:06:40;-1.30;85.50
8707;DHT22;4390;49.302;9.306;2023-02-27T05:09:19;-1.30;85.30
8707;DHT22;4390;49.302;9.306;2023-02-27T05:12:16;-1.50;85.10
8707;DHT22;4390;49.302;9.306;2023-02-27T05:15:14;-1.60;85.30
8707;DHT22;4390;49.302;9.306;2023-02-27T05:17:58;-1.70;85.70
8707;DHT22;4390;49.302;9.306;2023-02-27T05:20:33;-1.60;85.60
8707;DHT22;4390;49.302;9.306;2023-02-27T05:23:13;-1.70;85.70
8707;DHT22;4390;49.302;9.306;2023-02-27T05:26:10;-1.50;85.70
8707;DHT22;4390;49.302;9.306;2023-02-27T05:29:02;-1.20;85.10
8707;DHT22;4390;49.302;9.306;2023-02-27T05:31:50;-1.40;84.80
8707;DHT22;4390;49.302;9.306;2023-02-27T05:34:33;-1.40;85.00
8707;DHT22;4390;49.302;9.306;2023-02-27T05:37:09;-1.40;85.00
8707;DHT22;4390;49.302;9.306;2023-02-27T05:39:38;-1.50;85.10
8707;DHT22;4390;49.302;9.306;2023-02-27T05:42:10;-1.50;85.10
8707;DHT22;4390;49.302;9.306;2023-02-27T05:44:43;-1.60;85.20
8707;DHT22;4390;49.302;9.306;2023-02-27T05:47:17;-1.60;85.30
8707;DHT22;4390;49.302;9.306;2023-02-27T05:50:00;-1.50;85.30
8707;DHT22;4390;49.302;9.306;2023-02-27T05:52:29;-1.40;85.00
8707;DHT22;4390;49.302;9.306;2023-02-27T05:55:29;-1.40;84.80
8707;DHT22;4390;49.302;9.306;2023-02-27T05:57:57;-1.50;85.00
8707;DHT22;4390;49.302;9.306;2023-02-27T06:03:03;-1.40;84.80
8707;DHT22;4390;49.302;9.306;2023-02-27T06:05:29;-1.40;84.90
8707;DHT22;4390;49.302;9.306;2023-02-27T06:07:56;-1.30;84.60
8707;DHT22;4390;49.302;9.306;2023-02-27T06:10:23;-1.60;84.80
8707;DHT22;4390;49.302;9.306;2023-02-27T06:12:50;-1.80;85.20
8707;DHT22;4390;49.302;9.306;2023-02-27T06:15:17;-1.90;85.50
8707;DHT22;4390;49.302;9.306;2023-02-27T06:17:45;-2.00;85.80
8707;DHT22;4390;49.302;9.306;2023-02-27T06:20:11;-2.20;85.90
8707;DHT22;4390;49.302;9.306;2023-02-27T06:22:38;-2.20;86.20
8707;DHT22;4390;49.302;9.306;2023-02-27T06:25:06;-2.10;86.40
8707;DHT22;4390;49.302;9.306;2023-02-27T06:27:33;-1.90;85.90
8707;DHT22;4390;49.302;9.306;2023-02-27T06:29:59;-2.00;85.80
8707;DHT22;4390;49.302;9.306;2023-02-27T06:32:26;-1.90;85.60
8707;DHT22;4390;49.302;9.306;2023-02-27T06:34:53;-1.90;85.80
8707;DHT22;4390;49.302;9.306;2023-02-27T06:37:20;-1.90;85.60
8707;DHT22;4390;49.302;9.306;2023-02-27T06:39:47;-1.80;85.70
8707;DHT22;4390;49.302;9.306;2023-02-27T06:42:14;-1.80;85.40
8707;DHT22;4390;49.302;9.306;2023-02-27T06:44:40;-1.80;85.50
8707;DHT22;4390;49.302;9.306;2023-02-27T06:47:07;-1.70;85.50
8707;DHT22;4390;49.302;9.306;2023-02-27T06:49:34;-1.80;85.20
8707;DHT22;4390;49.302;9.306;2023-02-27T06:52:01;-1.70;85.40
8707;DHT22;4390;49.302;9.306;2023-02-27T06:54:28;-1.50;85.10
8707;DHT22;4390;49.302;9.306;2023-02-27T06:56:54;-1.40;84.70
8707;DHT22;4390;49.302;9.306;2023-02-27T06:59:21;-1.40;84.90
8707;DHT22;4390;49.302;9.306;2023-02-27T07:01:48;-1.30;84.90
8707;DHT22;4390;49.302;9.306;2023-02-27T07:04:15;-1.50;84.80
8707;DHT22;4390;49.302;9.306;2023-02-27T07:06:42;-1.50;85.00
8707;DHT22;4390;49.302;9.306;2023-02-27T07:09:29;-1.30;85.00
8707;DHT22;4390;49.302;9.306;2023-02-27T07:11:56;-1.30;84.70
8707;DHT22;4390;49.302;9.306;2023-02-27T07:14:22;-1.30;84.80
8707;DHT22;4390;49.302;9.306;2023-02-27T07:16:51;-1.20;84.50
8707;DHT22;4390;49.302;9.306;2023-02-27T07:19:25;-1.20;84.50
8707;DHT22;4390;49.302;9.306;2023-02-27T07:21:51;-1.00;84.10
8707;DHT22;4390;49.302;9.306;2023-02-27T07:24:18;-1.00;83.90
8707;DHT22;4390;49.302;9.306;2023-02-27T07:26:48;-1.20;84.20
8707;DHT22;4390;49.302;9.306;2023-02-27T07:29:19;-1.30;84.50
8707;DHT22;4390;49.302;9.306;2023-02-27T07:31:49;-1.10;84.60
8707;DHT22;4390;49.302;9.306;2023-02-27T07:34:16;-1.00;84.20
8707;DHT22;4390;49.302;9.306;2023-02-27T07:36:43;-1.20;84.30
8707;DHT22;4390;49.302;9.306;2023-02-27T07:39:12;-1.20;84.70
8707;DHT22;4390;49.302;9.306;2023-02-27T07:41:42;-1.10;84.60
8707;DHT22;4390;49.302;9.306;2023-02-27T07:44:16;-1.20;84.30
8707;DHT22;4390;49.302;9.306;2023-02-27T07:46:42;-1.30;84.20
8707;DHT22;4390;49.302;9.306;2023-02-27T07:49:10;-1.70;84.60
8707;DHT22;4390;49.302;9.306;2023-02-27T07:51:37;-1.90;85.60
8707;DHT22;4390;49.302;9.306;2023-02-27T07:54:04;-1.80;86.00
8707;DHT22;4390;49.302;9.306;2023-02-27T07:56:31;-1.60;85.60
8707;DHT22;4390;49.302;9.306;2023-02-27T07:58:57;-1.40;85.30
8707;DHT22;4390;49.302;9.306;2023-02-27T08:01:24;-1.20;84.80
8707;DHT22;4390;49.302;9.306;2023-02-27T08:03:51;-1.30;84.60
8707;DHT22;4390;49.302;9.306;2023-02-27T08:06:18;-1.30;84.80
8707;DHT22;4390;49.302;9.306;2023-02-27T08:08:45;-1.50;84.90
8707;DHT22;4390;49.302;9.306;2023-02-27T08:11:15;-1.30;85.10
8707;DHT22;4390;49.302;9.306;2023-02-27T08:13:44;-1.00;85.00
8707;DHT22;4390;49.302;9.306;2023-02-27T08:16:29;-0.90;84.20
8707;DHT22;4390;49.302;9.306;2023-02-27T08:18:58;-1.10;84.10
8707;DHT22;4390;49.302;9.306;2023-02-27T08:21:25;-1.20;84.80
8707;DHT22;4390;49.302;9.306;2023-02-27T08:23:53;-1.00;84.50
8707;DHT22;4390;49.302;9.306;2023-02-27T08:26:23;-1.10;84.50
8707;DHT22;4390;49.302;9.306;2023-02-27T08:28:50;-0.90;84.60
8707;DHT22;4390;49.302;9.306;2023-02-27T08:31:23;-0.70;84.20
8707;DHT22;4390;49.302;9.306;2023-02-27T08:33:51;-0.70;83.80
8707;DHT22;4390;49.302;9.306;2023-02-27T08:36:35;-0.60;83.70
8707;DHT22;4390;49.302;9.306;2023-02-27T08:39:01;-0.90;83.40
8707;DHT22;4390;49.302;9.306;2023-02-27T08:41:28;-0.80;84.00
8707;DHT22;4390;49.302;9.306;2023-02-27T08:43:56;-0.50;83.80
8707;DHT22;4390;49.302;9.306;2023-02-27T08:46:23;-0.30;83.40
8707;DHT22;4390;49.302;9.306;2023-02-27T08:48:51;-0.20;83.20
8707;DHT22;4390;49.302;9.306;2023-02-27T08:51:18;-0.20;82.80
8707;DHT22;4390;49.302;9.306;2023-02-27T08:53:44;-0.50;82.70
8707;DHT22;4390;49.302;9.306;2023-02-27T08:56:14;-0.70;83.00
8707;DHT22;4390;49.302;9.306;2023-02-27T08:58:41;-0.80;83.50
8707;DHT22;4390;49.302;9.306;2023-02-27T09:01:08;-0.80;83.80
8707;DHT22;4390;49.302;9.306;2023-02-27T09:03:35;-0.80;83.70
8707;DHT22;4390;49.302;9.306;2023-02-27T09:06:03;-0.80;83.60
8707;DHT22;4390;49.302;9.306;2023-02-27T09:08:30;-0.60;84.00
8707;DHT22;4390;49.302;9.306;2023-02-27T09:10:58;-0.50;83.50
8707;DHT22;4390;49.302;9.306;2023-02-27T09:13:25;-0.50;83.50
8707;DHT22;4390;49.302;9.306;2023-02-27T09:15:52;-0.50;83.50
8707;DHT22;4390;49.302;9.306;2023-02-27T09:18:21;-0.30;83.70
8707;DHT22;4390;49.302;9.306;2023-02-27T09:20:49;0.00;83.40
8707;DHT22;4390;49.302;9.306;2023-02-27T09:23:17;0.10;83.20
8707;DHT22;4390;49.302;9.306;2023-02-27T09:25:46;0.30;82.70
8707;DHT22;4390;49.302;9.306;2023-02-27T09:28:13;0.30;82.30
8707;DHT22;4390;49.302;9.306;2023-02-27T09:30:41;0.20;82.40
8707;DHT22;4390;49.302;9.306;2023-02-27T09:33:08;0.40;82.50
8707;DHT22;4390;49.302;9.306;2023-02-27T09:35:35;0.60;82.30
8707;DHT22;4390;49.302;9.306;2023-02-27T09:38:03;0.70;81.50
8707;DHT22;4390;49.302;9.306;2023-02-27T09:40:32;0.70;81.50
8707;DHT22;4390;49.302;9.306;2023-02-27T09:43:10;0.80;81.60
8707;DHT22;4390;49.302;9.306;2023-02-27T09:45:41;0.80;81.40
8707;DHT22;4390;49.302;9.306;2023-02-27T09:48:36;0.80;81.50
8707;DHT22;4390;49.302;9.306;2023-02-27T09:51:06;0.80;81.60
8707;DHT22;4390;49.302;9.306;2023-02-27T09:54:00;1.00;81.40
8707;DHT22;4390;49.302;9.306;2023-02-27T09:56:34;0.50;80.90
8707;DHT22;4390;49.302;9.306;2023-02-27T09:59:28;0.60;81.00
8707;DHT22;4390;49.302;9.306;2023-02-27T10:01:58;0.80;81.40
8707;DHT22;4390;49.302;9.306;2023-02-27T10:07:29;1.30;80.80
8707;DHT22;4390;49.302;9.306;2023-02-27T10:10:30;1.40;80.10
8707;DHT22;4390;49.302;9.306;2023-02-27T10:15:41;1.90;79.50
8707;DHT22;4390;49.302;9.306;2023-02-27T10:18:16;2.30;79.00
8707;DHT22;4390;49.302;9.306;2023-02-27T10:21:00;3.40;78.50
8707;DHT22;4390;49.302;9.306;2023-02-27T10:26:25;5.80;73.80
8707;DHT22;4390;49.302;9.306;2023-02-27T10:28:53;7.30;71.80
8707;DHT22;4390;49.302;9.306;2023-02-27T10:31:25;7.80;69.50
8707;DHT22;4390;49.302;9.306;2023-02-27T10:33:56;8.70;68.40
8707;DHT22;4390;49.302;9.306;2023-02-27T10:36:24;9.60;67.30
8707;DHT22;4390;49.302;9.306;2023-02-27T10:39:04;10.70;66.20
8707;DHT22;4390;49.302;9.306;2023-02-27T10:41:34;10.40;65.10
8707;DHT22;4390;49.302;9.306;2023-02-27T10:44:01;9.80;65.50
8707;DHT22;4390;49.302;9.306;2023-02-27T10:46:31;10.10;66.20
8707;DHT22;4390;49.302;9.306;2023-02-27T10:49:05;10.80;65.00
8707;DHT22;4390;49.302;9.306;2023-02-27T10:51:36;10.80;64.10
8707;DHT22;4390;49.302;9.306;2023-02-27T10:54:18;10.70;64.00
8707;DHT22;4390;49.302;9.306;2023-02-27T10:56:54;11.80;64.50
8707;DHT22;4390;49.302;9.306;2023-02-27T11:01:56;11.80;61.80
8707;DHT22;4390;49.302;9.306;2023-02-27T11:04:30;12.00;61.90
8707;DHT22;4390;49.302;9.306;2023-02-27T11:06:59;12.60;61.70
8707;DHT22;4390;49.302;9.306;2023-02-27T11:09:29;12.60;60.80
8707;DHT22;4390;49.302;9.306;2023-02-27T11:12:21;12.40;61.30
8707;DHT22;4390;49.302;9.306;2023-02-27T11:14:52;13.50;60.80
8707;DHT22;4390;49.302;9.306;2023-02-27T11:17:27;15.00;59.60
8707;DHT22;4390;49.302;9.306;2023-02-27T11:19:56;15.50;58.30
8707;DHT22;4390;49.302;9.306;2023-02-27T11:22:25;15.20;57.90
8707;DHT22;4390;49.302;9.306;2023-02-27T11:25:19;15.20;58.20
8707;DHT22;4390;49.302;9.306;2023-02-27T11:27:46;16.00;58.30
8707;DHT22;4390;49.302;9.306;2023-02-27T11:30:27;14.10;58.00
8707;DHT22;4390;49.302;9.306;2023-02-27T11:33:00;13.50;59.20
8707;DHT22;4390;49.302;9.306;2023-02-27T11:35:31;14.40;59.30
8707;DHT22;4390;49.302;9.306;2023-02-27T11:38:01;14.80;58.30
8707;DHT22;4390;49.302;9.306;2023-02-27T11:40:35;14.90;58.20
8707;DHT22;4390;49.302;9.306;2023-02-27T11:43:05;14.10;57.40
8707;DHT22;4390;49.302;9.306;2023-02-27T11:45:40;12.60;59.10
8707;DHT22;4390;49.302;9.306;2023-02-27T11:48:31;12.30;60.10
8707;DHT22;4390;49.302;9.306;2023-02-27T11:54:58;11.30;61.10
8707;DHT22;4390;49.302;9.306;2023-02-27T11:59:44;10.50;61.30
8707;DHT22;4390;49.302;9.306;2023-02-27T12:02:19;9.70;62.00
8707;DHT22;4390;49.302;9.306;2023-02-27T12:04:55;9.00;62.50
8707;DHT22;4390;49.302;9.306;2023-02-27T12:07:35;8.00;63.70
8707;DHT22;4390;49.302;9.306;2023-02-27T12:10:18;7.60;65.00
8707;DHT22;4390;49.302;9.306;2023-02-27T12:15:29;6.30;66.60
8707;DHT22;4390;49.302;9.306;2023-02-27T12:20:45;5.90;68.00
8707;DHT22;4390;49.302;9.306;2023-02-27T12:23:33;5.70;67.90
8707;DHT22;4390;49.302;9.306;2023-02-27T12:34:16;5.40;70.00
8707;DHT22;4390;49.302;9.306;2023-02-27T12:36:45;6.40;68.10
8707;DHT22;4390;49.302;9.306;2023-02-27T12:39:19;7.00;67.70
8707;DHT22;4390;49.302;9.306;2023-02-27T12:44:23;8.30;65.70
8707;DHT22;4390;49.302;9.306;2023-02-27T12:49:57;8.80;64.30
8707;DHT22;4390;49.302;9.306;2023-02-27T12:53:04;10.20;64.40
8707;DHT22;4390;49.302;9.306;2023-02-27T12:56:12;11.40;62.70
8707;DHT22;4390;49.302;9.306;2023-02-27T13:01:39;10.70;61.20
8707;DHT22;4390;49.302;9.306;2023-02-27T13:07:32;9.30;62.60
8707;DHT22;4390;49.302;9.306;2023-02-27T13:10:23;10.00;63.40
8707;DHT22;4390;49.302;9.306;2023-02-27T13:13:05;11.30;62.60
8707;DHT22;4390;49.302;9.306;2023-02-27T13:15:49;12.10;60.30
8707;DHT22;4390;49.302;9.306;2023-02-27T13:18:54;11.30;60.70
8707;DHT22;4390;49.302;9.306;2023-02-27T13:24:28;11.10;61.30
8707;DHT22;4390;49.302;9.306;2023-02-27T13:27:11;12.40;60.90
8707;DHT22;4390;49.302;9.306;2023-02-27T13:29:46;13.30;59.00
8707;DHT22;4390;49.302;9.306;2023-02-27T13:32:32;13.60;57.70
8707;DHT22;4390;49.302;9.306;2023-02-27T13:35:34;13.90;57.30
8707;DHT22;4390;49.302;9.306;2023-02-27T13:38:40;14.20;57.00
8707;DHT22;4390;49.302;9.306;2023-02-27T13:43:48;15.00;56.00
8707;DHT22;4390;49.302;9.306;2023-02-27T13:46:30;15.00;55.70
8707;DHT22;4390;49.302;9.306;2023-02-27T13:51:44;15.10;56.40
8707;DHT22;4390;49.302;9.306;2023-02-27T13:59:32;11.10;58.50
8707;DHT22;4390;49.302;9.306;2023-02-27T14:02:28;11.10;58.90
8707;DHT22;4390;49.302;9.306;2023-02-27T14:04:58;11.40;58.70
8707;DHT22;4390;49.302;9.306;2023-02-27T14:07:32;11.60;58.30
8707;DHT22;4390;49.302;9.306;2023-02-27T14:10:06;11.50;58.50
8707;DHT22;4390;49.302;9.306;2023-02-27T14:12:39;12.10;58.40
8707;DHT22;4390;49.302;9.306;2023-02-27T14:17:58;12.40;58.10
8707;DHT22;4390;49.302;9.306;2023-02-27T14:28:54;7.90;62.10
8707;DHT22;4390;49.302;9.306;2023-02-27T14:31:31;7.60;62.50
8707;DHT22;4390;49.302;9.306;2023-02-27T14:34:00;7.40;62.50
8707;DHT22;4390;49.302;9.306;2023-02-27T14:36:38;6.80;63.00
8707;DHT22;4390;49.302;9.306;2023-02-27T14:39:06;6.00;64.00
8707;DHT22;4390;49.302;9.306;2023-02-27T14:41:48;6.40;64.80
8707;DHT22;4390;49.302;9.306;2023-02-27T14:44:25;6.90;64.50
8707;DHT22;4390;49.302;9.306;2023-02-27T14:46:55;7.40;63.90
8707;DHT22;4390;49.302;9.306;2023-02-27T14:49:26;7.80;63.70
8707;DHT22;4390;49.302;9.306;2023-02-27T14:51:54;8.00;63.40
8707;DHT22;4390;49.302;9.306;2023-02-27T14:54:25;7.80;63.70
8707;DHT22;4390;49.302;9.306;2023-02-27T14:59:27;7.30;64.50
8707;DHT22;4390;49.302;9.306;2023-02-27T15:01:56;6.70;65.00
8707;DHT22;4390;49.302;9.306;2023-02-27T15:04:28;6.50;64.90
8707;DHT22;4390;49.302;9.306;2023-02-27T15:06:57;6.40;65.20
8707;DHT22;4390;49.302;9.306;2023-02-27T15:09:35;6.20;65.50
8707;DHT22;4390;49.302;9.306;2023-02-27T15:12:03;6.20;65.70
8707;DHT22;4390;49.302;9.306;2023-02-27T15:14:36;6.20;65.60
8707;DHT22;4390;49.302;9.306;2023-02-27T15:17:25;5.90;65.80
8707;DHT22;4390;49.302;9.306;2023-02-27T15:19:57;5.90;66.10
8707;DHT22;4390;49.302;9.306;2023-02-27T15:22:27;5.80;65.70
8707;DHT22;4390;49.302;9.306;2023-02-27T15:25:05;5.30;65.70
8707;DHT22;4390;49.302;9.306;2023-02-27T15:27:34;5.40;65.90
8707;DHT22;4390;49.302;9.306;2023-02-27T15:30:03;5.60;65.70
8707;DHT22;4390;49.302;9.306;2023-02-27T15:32:37;5.70;65.60
8707;DHT22;4390;49.302;9.306;2023-02-27T15:35:28;6.00;65.40
8707;DHT22;4390;49.302;9.306;2023-02-27T15:37:58;6.00;64.60
8707;DHT22;4390;49.302;9.306;2023-02-27T15:40:27;5.50;64.40
8707;DHT22;4390;49.302;9.306;2023-02-27T15:42:57;5.30;64.80
8707;DHT22;4390;49.302;9.306;2023-02-27T15:45:29;5.00;65.40
8707;DHT22;4390;49.302;9.306;2023-02-27T15:47:56;4.90;65.90
8707;DHT22;4390;49.302;9.306;2023-02-27T15:50:35;5.00;66.00
8707;DHT22;4390;49.302;9.306;2023-02-27T15:53:11;4.90;65.90
8707;DHT22;4390;49.302;9.306;2023-02-27T15:55:41;4.60;66.00
8707;DHT22;4390;49.302;9.306;2023-02-27T15:58:29;4.50;66.20
8707;DHT22;4390;49.302;9.306;2023-02-27T16:01:10;4.50;66.80
8707;DHT22;4390;49.302;9.306;2023-02-27T16:03:43;4.50;67.00
8707;DHT22;4390;49.302;9.306;2023-02-27T16:06:20;4.60;67.00
8707;DHT22;4390;49.302;9.306;2023-02-27T16:08:54;4.40;67.30
8707;DHT22;4390;49.302;9.306;2023-02-27T16:11:30;4.50;67.20
8707;DHT22;4390;49.302;9.306;2023-02-27T16:13:57;4.40;67.20
8707;DHT22;4390;49.302;9.306;2023-02-27T16:16:33;4.20;67.20
8707;DHT22;4390;49.302;9.306;2023-02-27T16:19:26;4.00;67.70
8707;DHT22;4390;49.302;9.306;2023-02-27T16:22:22;3.70;68.20
8707;DHT22;4390;49.302;9.306;2023-02-27T16:24:51;3.80;68.60
8707;DHT22;4390;49.302;9.306;2023-02-27T16:27:24;3.90;68.10
8707;DHT22;4390;49.302;9.306;2023-02-27T16:29:54;3.80;68.10
8707;DHT22;4390;49.302;9.306;2023-02-27T16:32:33;3.80;68.40
8707;DHT22;4390;49.302;9.306;2023-02-27T16:35:07;3.90;68.50
8707;DHT22;4390;49.302;9.306;2023-02-27T16:37:41;4.00;68.40
8707;DHT22;4390;49.302;9.306;2023-02-27T16:40:22;3.80;68.30
8707;DHT22;4390;49.302;9.306;2023-02-27T16:42:53;3.70;68.70
8707;DHT22;4390;49.302;9.306;2023-02-27T16:45:25;3.60;68.80
8707;DHT22;4390;49.302;9.306;2023-02-27T16:47:57;3.50;69.40
8707;DHT22;4390;49.302;9.306;2023-02-27T16:50:31;3.40;69.90
8707;DHT22;4390;49.302;9.306;2023-02-27T16:52:59;3.50;70.00
8707;DHT22;4390;49.302;9.306;2023-02-27T16:55:26;3.50;69.90
8707;DHT22;4390;49.302;9.306;2023-02-27T16:57:53;3.50;70.40
8707;DHT22;4390;49.302;9.306;2023-02-27T17:00:20;3.40;70.70
8707;DHT22;4390;49.302;9.306;2023-02-27T17:02:48;3.40;71.00
8707;DHT22;4390;49.302;9.306;2023-02-27T17:05:16;3.60;70.70
8707;DHT22;4390;49.302;9.306;2023-02-27T17:07:43;3.70;70.30
8707;DHT22;4390;49.302;9.306;2023-02-27T17:10:14;3.60;70.00
8707;DHT22;4390;49.302;9.306;2023-02-27T17:12:42;3.30;70.70
8707;DHT22;4390;49.302;9.306;2023-02-27T17:15:09;3.30;70.80
8707;DHT22;4390;49.302;9.306;2023-02-27T17:17:36;3.40;71.10
8707;DHT22;4390;49.302;9.306;2023-02-27T17:20:03;3.50;70.50
8707;DHT22;4390;49.302;9.306;2023-02-27T17:22:36;3.20;70.90
8707;DHT22;4390;49.302;9.306;2023-02-27T17:25:05;3.10;71.60
8707;DHT22;4390;49.302;9.306;2023-02-27T17:27:32;3.20;71.60
8707;DHT22;4390;49.302;9.306;2023-02-27T17:29:59;3.20;71.30
8707;DHT22;4390;49.302;9.306;2023-02-27T17:32:26;2.90;71.60
8707;DHT22;4390;49.302;9.306;2023-02-27T17:34:54;2.80;72.00
8707;DHT22;4390;49.302;9.306;2023-02-27T17:37:21;2.80;72.10
8707;DHT22;4390;49.302;9.306;2023-02-27T17:39:48;2.70;72.30
8707;DHT22;4390;49.302;9.306;2023-02-27T17:42:15;2.70;72.60
8707;DHT22;4390;49.302;9.306;2023-02-27T17:44:45;2.70;72.70
8707;DHT22;4390;49.302;9.306;2023-02-27T17:47:12;2.70;72.80
8707;DHT22;4390;49.302;9.306;2023-02-27T17:49:39;2.70;73.00
8707;DHT22;4390;49.302;9.306;2023-02-27T17:52:06;2.70;72.60
8707;DHT22;4390;49.302;9.306;2023-02-27T17:54:34;2.50;73.20
8707;DHT22;4390;49.302;9.306;2023-02-27T17:57:02;2.50;73.50
8707;DHT22;4390;49.302;9.306;2023-02-27T17:59:30;2.50;73.70
8707;DHT22;4390;49.302;9.306;2023-02-27T18:01:57;2.50;74.00
8707;DHT22;4390;49.302;9.306;2023-02-27T18:04:24;2.60;73.80
8707;DHT22;4390;49.302;9.306;2023-02-27T18:06:52;2.50;73.80
8707;DHT22;4390;49.302;9.306;2023-02-27T18:09:18;2.50;74.10
8707;DHT22;4390;49.302;9.306;2023-02-27T18:11:45;2.50;74.10
8707;DHT22;4390;49.302;9.306;2023-02-27T18:14:12;2.30;74.60
8707;DHT22;4390;49.302;9.306;2023-02-27T18:16:39;2.40;74.70
8707;DHT22;4390;49.302;9.306;2023-02-27T18:19:07;2.20;74.90
8707;DHT22;4390;49.302;9.306;2023-02-27T18:21:34;2.10;75.30
8707;DHT22;4390;49.302;9.306;2023-02-27T18:24:02;2.10;75.50
8707;DHT22;4390;49.302;9.306;2023-02-27T18:26:30;1.90;76.00
8707;DHT22;4390;49.302;9.306;2023-02-27T18:29:04;1.80;76.20